You are not logged in, Click here to log in
吉隆坡國際機場KUL / WMKK 馬來西亞
ICAO: WMKK Country: 馬來西亞
Latitude: 2.75452 Longitude: 101.704
Total Arrivals: 27 Total Departures: 30
Latest Arrival: PR118 (RPLL-WMKK)Arthur. Kung Latest Departure: WY825 (WMKK-WSSS)Stone. Chang
Scenery:
METAR : WMKK 131000Z 20003KT 120V250 9999 FEW018 29/23 Q1009 NOSIG

吉隆坡國際機場KUL

You are accessing this site from IP address 100.26.176.182. Virtual Airline. CMS by phpVMS.Website designed by Zumeweb and edited by Theo Bearman.
There is 0 User(s) Online: | and 11 Guest(s) Online.
All information on this site is for fight simulation purposes only. This site is for flight logging for pilots of Virtual Airline&模擬飛行論壇 FlySim only.